Time;durP1;ratioP1;P1;durP2;ratioP2;P2;SDS_P1;SDS_P2;PMS_P1;PMS_P2;Temp;Humidity;BMP_temperature;BMP_pressure;BME280_temperature;BME280_humidity;BME280_pressure;Samples;Min_cycle;Max_cycle;Signal;HPM_P1;HPM_P2
2022/09/06 04:30:26;;;;;;;;;9.00;9.00;;;;;;;;5919405;22;46452;-65
2022/09/06 04:32:51;;;;;;;;;9.67;9.67;;;;;;;;5018776;28;45370;-65
2022/09/06 04:35:16;;;;;;;;;10.67;8.67;;;;;;;;5016512;28;45298;-65
2022/09/06 04:37:41;;;;;;;;;8.67;7.67;;;;;;;;5015552;28;46010;-65
2022/09/06 04:40:07;;;;;;;;;9.33;9.33;;;;;;;;5019651;28;45344;-65
2022/09/06 04:42:32;;;;;;;;;6.00;6.00;;;;;;;;5016027;28;45467;-64
2022/09/06 04:44:57;;;;;;;;;6.33;6.00;;;;;;;;5019580;28;45447;-65
2022/09/06 04:47:23;;;;;;;;;8.00;8.00;;;;;;;;5018002;28;45277;-65
2022/09/06 04:49:48;;;;;;;;;8.33;7.33;;;;;;;;5019932;28;45604;-65
2022/09/06 04:52:14;;;;;;;;;9.33;8.33;;;;;;;;5009550;28;45371;-65
2022/09/06 04:54:39;;;;;;;;;7.33;7.33;;;;;;;;5020245;28;45371;-65
2022/09/06 04:57:04;;;;;;;;;8.00;8.00;;;;;;;;5011727;28;46120;-65
2022/09/06 04:59:29;;;;;;;;;8.00;7.00;;;;;;;;5018421;28;45217;-65
2022/09/06 05:01:55;;;;;;;;;10.00;10.00;;;;;;;;5031350;28;45564;-65
2022/09/06 05:04:20;;;;;;;;;8.00;8.00;;;;;;;;5019376;28;45442;-65
2022/09/06 05:06:45;;;;;;;;;9.00;7.33;;;;;;;;5032003;28;46153;-65
2022/09/06 05:09:10;;;;;;;;;10.00;8.33;;;;;;;;5018144;28;45371;-65
2022/09/06 05:11:36;;;;;;;;;10.00;8.00;;;;;;;;5014830;28;45593;-65
2022/09/06 05:14:01;;;;;;;;;7.67;7.67;;;;;;;;5015560;28;46901;-66
2022/09/06 05:16:26;;;;;;;;;13.00;9.67;;;;;;;;5006197;28;46024;-65
2022/09/06 05:18:51;;;;;;;;;8.33;8.33;;;;;;;;5005298;28;45380;-64
2022/09/06 05:21:17;;;;;;;;;11.50;10.00;;;;;;;;5013201;28;45297;-66
2022/09/06 05:23:42;;;;;;;;;7.33;7.33;;;;;;;;5015920;28;45496;-65
2022/09/06 05:26:07;;;;;;;;;8.67;8.67;;;;;;;;5001923;28;46455;-64
2022/09/06 05:28:33;;;;;;;;;10.33;9.67;;;;;;;;5006424;28;45501;-65
2022/09/06 05:31:08;;;;;;;;;8.67;8.67;;;;;;;;5011031;28;45400;-65
2022/09/06 05:33:33;;;;;;;;;8.67;8.67;;;;;;;;5017977;28;45946;-65
2022/09/06 05:35:58;;;;;;;;;8.00;6.67;;;;;;;;5013897;28;45415;-65
2022/09/06 05:38:24;;;;;;;;;9.00;9.00;;;;;;;;5007174;28;45573;-65
2022/09/06 05:40:49;;;;;;;;;9.00;9.00;;;;;;;;5004255;28;45465;-64
2022/09/06 05:43:15;;;;;;;;;8.00;8.00;;;;;;;;5009117;28;45261;-64
2022/09/06 05:45:40;;;;;;;;;12.67;9.00;;;;;;;;5004078;28;46792;-64
2022/09/06 05:48:05;;;;;;;;;7.00;6.67;;;;;;;;5005236;28;45428;-64
2022/09/06 05:50:30;;;;;;;;;8.67;7.00;;;;;;;;5019272;28;45390;-65
2022/09/06 05:52:56;;;;;;;;;6.67;6.67;;;;;;;;5024652;28;45434;-64
2022/09/06 05:55:21;;;;;;;;;7.67;7.67;;;;;;;;5014991;28;46570;-65
2022/09/06 05:57:46;;;;;;;;;10.33;10.00;;;;;;;;5017646;28;45623;-67
2022/09/06 06:00:12;;;;;;;;;12.00;11.00;;;;;;;;5029127;28;45603;-66
2022/09/06 06:02:37;;;;;;;;;7.00;7.00;;;;;;;;5016898;28;45478;-66
2022/09/06 06:05:03;;;;;;;;;10.33;10.00;;;;;;;;5012150;28;47009;-65
2022/09/06 06:07:28;;;;;;;;;8.33;7.67;;;;;;;;5015269;28;45289;-66
2022/09/06 06:09:53;;;;;;;;;9.33;7.33;;;;;;;;5030402;28;45604;-66
2022/09/06 06:12:18;;;;;;;;;11.67;8.67;;;;;;;;5021565;28;45528;-67
2022/09/06 06:14:44;;;;;;;;;9.00;9.00;;;;;;;;5029447;28;46305;-66
2022/09/06 06:17:09;;;;;;;;;10.67;8.00;;;;;;;;5025102;28;45327;-66
2022/09/06 06:19:34;;;;;;;;;9.00;7.00;;;;;;;;5026212;28;45547;-66
2022/09/06 06:22:00;;;;;;;;;7.00;7.00;;;;;;;;5001076;28;45351;-66
2022/09/06 06:24:26;;;;;;;;;9.33;9.00;;;;;;;;5006331;28;46827;-66
2022/09/06 06:26:51;;;;;;;;;7.00;7.00;;;;;;;;5025643;28;45519;-66
2022/09/06 06:29:16;;;;;;;;;7.33;7.33;;;;;;;;5015236;28;45310;-67
2022/09/06 06:31:53;;;;;;;;;10.00;8.00;;;;;;;;5011900;28;45238;-67
2022/09/06 06:34:20;;;;;;;;;10.33;9.00;;;;;;;;5020354;28;46224;-67
2022/09/06 06:36:46;;;;;;;;;10.67;9.67;;;;;;;;5016425;28;46297;-67
2022/09/06 06:39:11;;;;;;;;;6.33;6.33;;;;;;;;5011207;28;45446;-67
2022/09/06 06:41:36;;;;;;;;;9.00;7.50;;;;;;;;5018085;28;45419;-67
2022/09/06 06:44:02;;;;;;;;;8.50;7.25;;;;;;;;5008697;28;45509;-67
2022/09/06 06:46:30;;;;;;;;;8.00;8.00;;;;;;;;5023839;28;45445;-67
2022/09/06 06:48:55;;;;;;;;;6.00;6.00;;;;;;;;5008426;28;45458;-67
2022/09/06 06:51:21;;;;;;;;;4.75;4.75;;;;;;;;5024994;28;45434;-67
2022/09/06 06:53:47;;;;;;;;;4.25;4.25;;;;;;;;5020146;28;45439;-68
2022/09/06 06:56:23;;;;;;;;;6.50;6.50;;;;;;;;5023882;28;45224;-67
2022/09/06 06:58:50;;;;;;;;;8.25;6.50;;;;;;;;5016613;28;45398;-67
2022/09/06 07:01:15;;;;;;;;;7.50;5.75;;;;;;;;5020888;28;45311;-67
2022/09/06 07:03:41;;;;;;;;;6.00;4.00;;;;;;;;5017860;28;46045;-67
2022/09/06 07:06:06;;;;;;;;;5.25;5.25;;;;;;;;5011649;28;45340;-67
2022/09/06 07:08:31;;;;;;;;;4.25;4.25;;;;;;;;5011173;28;45324;-68
2022/09/06 07:10:57;;;;;;;;;5.50;4.50;;;;;;;;5014706;28;45755;-68
2022/09/06 07:13:22;;;;;;;;;11.00;9.00;;;;;;;;5024553;28;46266;-68
2022/09/06 07:15:47;;;;;;;;;9.00;6.00;;;;;;;;5024952;28;45317;-67
2022/09/06 07:18:15;;;;;;;;;7.75;7.75;;;;;;;;5020961;28;45403;-67
2022/09/06 07:20:40;;;;;;;;;5.25;5.00;;;;;;;;5014615;28;45512;-68
2022/09/06 07:23:06;;;;;;;;;7.00;7.00;;;;;;;;5006681;28;46119;-69
2022/09/06 07:25:31;;;;;;;;;8.00;8.00;;;;;;;;5000157;28;45367;-68
2022/09/06 07:27:57;;;;;;;;;6.50;6.50;;;;;;;;5012624;28;45275;-68
2022/09/06 07:30:22;;;;;;;;;7.75;6.50;;;;;;;;5008123;28;45314;-67
2022/09/06 07:32:48;;;;;;;;;6.75;5.00;;;;;;;;5017441;28;46141;-68
2022/09/06 07:35:13;;;;;;;;;5.75;5.75;;;;;;;;5000306;28;45257;-68
2022/09/06 07:37:40;;;;;;;;;6.00;4.50;;;;;;;;5003149;28;45435;-67
2022/09/06 07:40:05;;;;;;;;;7.25;6.00;;;;;;;;5016897;28;45336;-67
2022/09/06 07:42:31;;;;;;;;;4.00;4.00;;;;;;;;5018752;28;45238;-67
2022/09/06 07:44:56;;;;;;;;;6.25;4.00;;;;;;;;5012841;28;45993;-67
2022/09/06 07:47:22;;;;;;;;;7.00;6.75;;;;;;;;5000771;28;45318;-68
2022/09/06 07:49:47;;;;;;;;;6.00;6.00;;;;;;;;5013193;28;45440;-67
2022/09/06 07:52:13;;;;;;;;;9.00;6.00;;;;;;;;5017690;28;45979;-67
2022/09/06 07:54:38;;;;;;;;;6.00;6.00;;;;;;;;5001860;28;45755;-67
2022/09/06 07:57:03;;;;;;;;;4.00;4.00;;;;;;;;5012850;28;45391;-67
2022/09/06 07:59:28;;;;;;;;;6.00;4.50;;;;;;;;5011697;28;45372;-67
2022/09/06 08:01:53;;;;;;;;;4.67;4.67;;;;;;;;5004629;28;46094;-67
2022/09/06 08:04:19;;;;;;;;;6.67;3.00;;;;;;;;5018070;28;45638;-66
2022/09/06 08:06:46;;;;;;;;;8.00;5.25;;;;;;;;5008119;28;45281;-66
2022/09/06 08:09:12;;;;;;;;;5.00;4.50;;;;;;;;5012845;28;45705;-67
2022/09/06 08:11:37;;;;;;;;;4.00;4.00;;;;;;;;5016995;28;46223;-66
2022/09/06 08:14:04;;;;;;;;;6.50;4.25;;;;;;;;5013830;28;45349;-66
2022/09/06 08:16:30;;;;;;;;;5.33;5.33;;;;;;;;5011168;28;45463;-67
2022/09/06 08:18:56;;;;;;;;;5.00;5.00;;;;;;;;5013197;28;45209;-67
2022/09/06 08:21:22;;;;;;;;;5.00;3.67;;;;;;;;5015912;28;46277;-67
2022/09/06 08:23:49;;;;;;;;;6.00;4.00;;;;;;;;5000070;28;45493;-67
2022/09/06 08:26:15;;;;;;;;;3.50;3.50;;;;;;;;4997967;28;45349;-67
2022/09/06 08:28:40;;;;;;;;;3.33;3.33;;;;;;;;5011874;28;45618;-67
2022/09/06 08:31:15;;;;;;;;;4.00;4.00;;;;;;;;5012027;28;45552;-67
2022/09/06 08:33:42;;;;;;;;;4.00;4.00;;;;;;;;5006690;28;45446;-67
2022/09/06 08:36:07;;;;;;;;;4.00;4.00;;;;;;;;5005091;28;45364;-68
2022/09/06 08:38:33;;;;;;;;;5.00;5.00;;;;;;;;5011095;28;45292;-68
2022/09/06 08:41:09;;;;;;;;;4.33;4.33;;;;;;;;5007508;28;46947;-67
2022/09/06 08:43:35;;;;;;;;;3.50;1.00;;;;;;;;5022642;28;45473;-67
2022/09/06 08:46:01;;;;;;;;;4.75;4.00;;;;;;;;5009551;28;45554;-67
2022/09/06 08:48:33;;;;;;;;;5.00;3.00;;;;;;;;5015648;28;45823;-67
2022/09/06 08:51:16;;;;;;;;;4.00;3.33;;;;;;;;5009299;28;45352;-67
2022/09/06 08:53:45;;;;;;;;;4.00;4.00;;;;;;;;5018250;28;45399;-67
2022/09/06 08:56:13;;;;;;;;;3.67;3.67;;;;;;;;5005603;28;45523;-67
2022/09/06 08:58:41;;;;;;;;;4.25;3.50;;;;;;;;5015183;28;45367;-67
2022/09/06 09:01:11;;;;;;;;;4.50;4.50;;;;;;;;5000664;28;46218;-68
2022/09/06 09:03:37;;;;;;;;;5.00;3.75;;;;;;;;5026716;28;45868;-68
2022/09/06 09:06:04;;;;;;;;;4.25;4.25;;;;;;;;4998926;28;45701;-68
2022/09/06 09:08:45;;;;;;;;;1.25;1.25;;;;;;;;5019285;28;45908;-67
2022/09/06 09:11:20;;;;;;;;;0.00;0.00;;;;;;;;5021474;28;46325;-68
2022/09/06 09:13:46;;;;;;;;;5.50;4.50;;;;;;;;5007565;28;45472;-67
2022/09/06 09:16:11;;;;;;;;;3.75;3.00;;;;;;;;5015690;28;45286;-68
2022/09/06 09:18:38;;;;;;;;;4.00;3.00;;;;;;;;5012907;28;45566;-68
2022/09/06 09:21:04;;;;;;;;;2.50;2.50;;;;;;;;5015565;28;46234;-68
2022/09/06 09:23:29;;;;;;;;;4.00;4.00;;;;;;;;5017550;28;45419;-68
2022/09/06 09:25:58;;;;;;;;;4.00;4.00;;;;;;;;5000831;28;45416;-69
2022/09/06 09:28:24;;;;;;;;;3.50;2.25;;;;;;;;5004942;28;45291;-69
2022/09/06 09:30:54;;;;;;;;;5.00;4.00;;;;;;;;5009609;28;47029;-69
2022/09/06 09:33:31;;;;;;;;;3.00;2.50;;;;;;;;5007389;28;45443;-69
2022/09/06 09:36:19;;;;;;;;;2.25;2.25;;;;;;;;5020241;28;45623;-69
2022/09/06 09:38:48;;;;;;;;;5.00;4.00;;;;;;;;5019438;28;45652;-70
2022/09/06 09:41:30;;;;;;;;;3.50;3.50;;;;;;;;5017321;28;46956;-69
2022/09/06 09:43:57;;;;;;;;;4.75;4.75;;;;;;;;5013155;28;45320;-69
2022/09/06 09:46:23;;;;;;;;;3.00;2.75;;;;;;;;5006700;28;45379;-70
2022/09/06 09:49:03;;;;;;;;;3.50;3.50;;;;;;;;5019856;28;45844;-69
2022/09/06 09:51:29;;;;;;;;;3.75;3.00;;;;;;;;5010293;28;45285;-69
2022/09/06 09:53:56;;;;;;;;;2.75;2.75;;;;;;;;5020797;28;45345;-69
2022/09/06 09:56:32;;;;;;;;;4.00;3.00;;;;;;;;5007931;28;45693;-69
2022/09/06 09:58:57;;;;;;;;;5.50;2.50;;;;;;;;5004079;28;45436;-69
2022/09/06 10:01:28;;;;;;;;;2.75;2.75;;;;;;;;5011472;28;46920;-69
2022/09/06 10:04:02;;;;;;;;;3.60;3.60;;;;;;;;5004259;28;45325;-69
2022/09/06 10:06:27;;;;;;;;;2.50;2.50;;;;;;;;5003601;28;45665;-69
2022/09/06 10:08:53;;;;;;;;;1.25;1.25;;;;;;;;5005556;28;45512;-68
2022/09/06 10:11:36;;;;;;;;;2.75;2.75;;;;;;;;5010601;28;46457;-68
2022/09/06 10:14:19;;;;;;;;;4.50;3.00;;;;;;;;5003333;28;45189;-68
2022/09/06 10:16:44;;;;;;;;;3.00;2.25;;;;;;;;5012196;28;45399;-69
2022/09/06 10:19:30;;;;;;;;;3.75;2.25;;;;;;;;5019014;28;45379;-68
2022/09/06 10:21:58;;;;;;;;;4.25;3.50;;;;;;;;5016874;28;46483;-68
2022/09/06 10:24:35;;;;;;;;;4.25;4.00;;;;;;;;5000866;28;45245;-68
2022/09/06 10:27:01;;;;;;;;;3.00;2.50;;;;;;;;5012106;28;45299;-68
2022/09/06 10:29:26;;;;;;;;;3.00;2.00;;;;;;;;5003498;28;45526;-68
2022/09/06 10:32:01;;;;;;;;;3.00;3.00;;;;;;;;5019720;28;45377;-68
2022/09/06 10:34:43;;;;;;;;;3.50;2.50;;;;;;;;5015112;28;45454;-69
2022/09/06 10:37:20;;;;;;;;;5.00;5.00;;;;;;;;5007849;28;46169;-68
2022/09/06 10:39:53;;;;;;;;;4.25;3.25;;;;;;;;5018076;28;45645;-68
2022/09/06 10:42:19;;;;;;;;;3.75;3.75;;;;;;;;5008514;28;45427;-68
2022/09/06 10:45:03;;;;;;;;;5.25;4.25;;;;;;;;5018682;28;45304;-67
2022/09/06 10:47:37;;;;;;;;;2.75;2.00;;;;;;;;5005591;28;45482;-67
2022/09/06 10:50:04;;;;;;;;;2.50;2.50;;;;;;;;5002002;28;45276;-67
2022/09/06 10:52:34;;;;;;;;;2.00;2.00;;;;;;;;5004227;28;46258;-67
2022/09/06 10:55:03;;;;;;;;;2.50;2.00;;;;;;;;5010157;28;45342;-68
2022/09/06 10:57:33;;;;;;;;;2.00;2.00;;;;;;;;5009294;28;45467;-67
2022/09/06 11:00:02;;;;;;;;;2.50;1.75;;;;;;;;5004424;28;45406;-67
2022/09/06 11:02:40;;;;;;;;;1.00;1.00;;;;;;;;5002215;28;47958;-67
2022/09/06 11:05:10;;;;;;;;;3.75;3.75;;;;;;;;5006283;28;45514;-66
2022/09/06 11:07:47;;;;;;;;;3.25;3.00;;;;;;;;5010112;28;45732;-68
2022/09/06 11:10:44;;;;;;;;;6.50;3.50;;;;;;;;5015937;28;45402;-68
2022/09/06 11:13:16;;;;;;;;;3.50;2.50;;;;;;;;5012544;28;45531;-68
2022/09/06 11:15:41;;;;;;;;;4.75;3.50;;;;;;;;5003617;28;45433;-67
2022/09/06 11:18:12;;;;;;;;;4.60;3.00;;;;;;;;5007725;28;45249;-68
2022/09/06 11:20:41;;;;;;;;;1.50;1.50;;;;;;;;5019083;28;45315;-68
2022/09/06 11:23:25;;;;;;;;;3.75;3.25;;;;;;;;5018578;28;45640;-67
2022/09/06 11:26:08;;;;;;;;;3.50;3.50;;;;;;;;5008466;28;45458;-67
2022/09/06 11:28:53;;;;;;;;;3.00;3.00;;;;;;;;5015615;28;45542;-66
2022/09/06 11:31:24;;;;;;;;;4.25;3.50;;;;;;;;5015745;28;45449;-67
2022/09/06 11:34:00;;;;;;;;;6.25;3.25;;;;;;;;5017216;28;46387;-67
2022/09/06 11:36:28;;;;;;;;;2.00;1.25;;;;;;;;5009134;28;45351;-67
2022/09/06 11:38:58;;;;;;;;;4.00;4.00;;;;;;;;5008678;28;45590;-66
2022/09/06 11:41:29;;;;;;;;;3.00;3.00;;;;;;;;5015407;28;45285;-67
2022/09/06 11:43:54;;;;;;;;;3.00;3.00;;;;;;;;5022347;28;46062;-66
2022/09/06 11:46:31;;;;;;;;;4.75;3.50;;;;;;;;5010762;28;46387;-66
2022/09/06 11:49:04;;;;;;;;;3.25;3.25;;;;;;;;5017600;28;45418;-67
2022/09/06 11:51:40;;;;;;;;;3.50;3.00;;;;;;;;5016277;28;45575;-67
2022/09/06 11:54:11;;;;;;;;;4.00;2.75;;;;;;;;5015050;28;47150;-67
2022/09/06 11:56:46;;;;;;;;;3.50;3.50;;;;;;;;5011311;28;45414;-68
2022/09/06 11:59:11;;;;;;;;;4.50;4.50;;;;;;;;5012451;28;45648;-68
2022/09/06 12:01:37;;;;;;;;;2.25;2.00;;;;;;;;5006629;28;45382;-68
2022/09/06 12:04:04;;;;;;;;;8.00;3.25;;;;;;;;5007591;28;46977;-68
2022/09/06 12:06:31;;;;;;;;;4.00;2.25;;;;;;;;5010680;28;45542;-68
2022/09/06 12:08:56;;;;;;;;;2.25;2.25;;;;;;;;5015714;28;45396;-68
2022/09/06 12:11:27;;;;;;;;;3.25;3.25;;;;;;;;5007231;28;45447;-68
2022/09/06 12:13:54;;;;;;;;;3.50;3.50;;;;;;;;5014448;28;46329;-68
2022/09/06 12:16:19;;;;;;;;;4.25;3.75;;;;;;;;5014200;28;45523;-68
2022/09/06 12:18:47;;;;;;;;;2.75;2.75;;;;;;;;5015748;28;45442;-68
2022/09/06 12:21:31;;;;;;;;;5.25;2.50;;;;;;;;5011046;28;45498;-67
2022/09/06 12:23:56;;;;;;;;;6.50;6.50;;;;;;;;5010091;28;46435;-67
2022/09/06 12:26:40;;;;;;;;;2.75;2.00;;;;;;;;5014191;28;45487;-67
2022/09/06 12:29:09;;;;;;;;;2.00;1.75;;;;;;;;5015313;28;45348;-68
2022/09/06 12:31:51;;;;;;;;;3.75;2.75;;;;;;;;5012351;28;45509;-68
2022/09/06 12:34:33;;;;;;;;;1.75;1.75;;;;;;;;5010300;28;46330;-68
2022/09/06 12:37:09;;;;;;;;;2.00;2.00;;;;;;;;5014900;28;45733;-68
2022/09/06 12:39:35;;;;;;;;;2.00;2.00;;;;;;;;5015304;28;45514;-69
2022/09/06 12:42:00;;;;;;;;;2.75;2.75;;;;;;;;5015338;28;46733;-68
2022/09/06 12:44:36;;;;;;;;;5.75;2.75;;;;;;;;5011717;28;46059;-68
2022/09/06 12:47:13;;;;;;;;;4.00;3.00;;;;;;;;5013770;28;45486;-68
2022/09/06 12:49:39;;;;;;;;;1.50;1.50;;;;;;;;5016160;28;45456;-68
2022/09/06 12:52:06;;;;;;;;;2.00;2.00;;;;;;;;5016462;28;45276;-68
2022/09/06 12:54:31;;;;;;;;;2.00;2.00;;;;;;;;5011038;28;46197;-68
2022/09/06 12:57:10;;;;;;;;;1.25;1.25;;;;;;;;5015970;28;46632;-69
2022/09/06 12:59:35;;;;;;;;;3.00;3.00;;;;;;;;5020068;28;45511;-69
2022/09/06 13:02:06;;;;;;;;;1.50;1.50;;;;;;;;5015378;28;45473;-69
2022/09/06 13:04:42;;;;;;;;;2.00;1.00;;;;;;;;5019464;28;45675;-68
2022/09/06 13:07:10;;;;;;;;;4.00;4.00;;;;;;;;5018616;28;45406;-68
2022/09/06 13:09:37;;;;;;;;;1.00;1.00;;;;;;;;5020469;28;45355;-68
2022/09/06 13:12:05;;;;;;;;;2.50;2.00;;;;;;;;5018471;28;45361;-68
2022/09/06 13:14:31;;;;;;;;;2.00;2.00;;;;;;;;5014951;28;46142;-68
2022/09/06 13:16:56;;;;;;;;;2.50;0.75;;;;;;;;5018781;28;45748;-69
2022/09/06 13:19:41;;;;;;;;;4.00;4.00;;;;;;;;5019913;28;45500;-68
2022/09/06 13:22:07;;;;;;;;;3.50;3.50;;;;;;;;5013243;28;45487;-68
2022/09/06 13:24:36;;;;;;;;;3.50;2.00;;;;;;;;5011626;28;46161;-68
2022/09/06 13:27:19;;;;;;;;;3.00;3.00;;;;;;;;5016329;28;45499;-68
2022/09/06 13:29:53;;;;;;;;;3.50;3.50;;;;;;;;5016257;28;45360;-68
2022/09/06 13:32:18;;;;;;;;;3.00;3.00;;;;;;;;5016401;28;45487;-68
2022/09/06 13:34:49;;;;;;;;;2.75;2.75;;;;;;;;5015242;28;46683;-68
2022/09/06 13:37:14;;;;;;;;;2.75;2.75;;;;;;;;5017217;28;45455;-69
2022/09/06 13:39:42;;;;;;;;;4.50;4.25;;;;;;;;5014257;28;45307;-69
2022/09/06 13:42:09;;;;;;;;;4.25;3.25;;;;;;;;5007594;28;45899;-68
2022/09/06 13:44:36;;;;;;;;;3.25;3.25;;;;;;;;5011391;28;47021;-69
2022/09/06 13:47:01;;;;;;;;;3.00;2.50;;;;;;;;5013928;28;45353;-68
2022/09/06 13:49:27;;;;;;;;;4.50;3.50;;;;;;;;5011545;28;45948;-68
2022/09/06 13:51:53;;;;;;;;;3.75;3.75;;;;;;;;5013033;28;45591;-68
2022/09/06 13:54:19;;;;;;;;;4.50;3.50;;;;;;;;5011157;28;45454;-68
2022/09/06 13:56:44;;;;;;;;;5.00;4.25;;;;;;;;5017571;28;45882;-69
2022/09/06 13:59:10;;;;;;;;;4.00;4.00;;;;;;;;5010153;28;46038;-68
2022/09/06 14:01:36;;;;;;;;;5.50;5.50;;;;;;;;5016886;28;45830;-68
2022/09/06 14:04:01;;;;;;;;;5.00;3.25;;;;;;;;5015983;28;46037;-68
2022/09/06 14:06:27;;;;;;;;;4.25;4.25;;;;;;;;5014967;28;45833;-69
2022/09/06 14:08:52;;;;;;;;;6.75;5.50;;;;;;;;5018086;28;45524;-69
2022/09/06 14:11:17;;;;;;;;;3.00;3.00;;;;;;;;5018808;28;45375;-68
2022/09/06 14:13:43;;;;;;;;;6.00;6.00;;;;;;;;5019234;28;46015;-69
2022/09/06 14:16:08;;;;;;;;;5.50;4.75;;;;;;;;5016665;28;45876;-68
2022/09/06 14:18:33;;;;;;;;;7.00;5.00;;;;;;;;5019786;28;45465;-68
2022/09/06 14:20:59;;;;;;;;;4.25;4.25;;;;;;;;5019981;28;45547;-68
2022/09/06 14:23:24;;;;;;;;;6.25;5.50;;;;;;;;5017195;28;46925;-68
2022/09/06 14:25:59;;;;;;;;;5.00;5.00;;;;;;;;5013591;28;45460;-68
2022/09/06 14:28:25;;;;;;;;;6.00;4.50;;;;;;;;5010105;28;45348;-68
2022/09/06 14:30:51;;;;;;;;;3.50;3.50;;;;;;;;5010438;28;45353;-68
2022/09/06 14:33:16;;;;;;;;;6.25;6.25;;;;;;;;5017425;28;45345;-68
2022/09/06 14:35:42;;;;;;;;;4.00;4.00;;;;;;;;5018659;28;45467;-69
2022/09/06 14:38:07;;;;;;;;;3.75;3.75;;;;;;;;5016495;28;45534;-68
2022/09/06 14:40:36;;;;;;;;;4.50;4.50;;;;;;;;5014379;28;45801;-69
2022/09/06 14:43:01;;;;;;;;;5.00;5.00;;;;;;;;5015603;28;46516;-69
2022/09/06 14:45:27;;;;;;;;;5.00;3.75;;;;;;;;5014955;28;45537;-68
2022/09/06 14:47:52;;;;;;;;;6.00;4.25;;;;;;;;5015261;28;45710;-68
2022/09/06 14:50:18;;;;;;;;;4.75;4.25;;;;;;;;5010120;28;45868;-68
2022/09/06 14:52:43;;;;;;;;;3.50;3.25;;;;;;;;5006405;28;45445;-68
2022/09/06 14:55:08;;;;;;;;;5.25;3.75;;;;;;;;5016968;28;45461;-68
2022/09/06 14:57:33;;;;;;;;;2.50;2.50;;;;;;;;5016951;28;45524;-68
2022/09/06 14:59:59;;;;;;;;;6.00;5.00;;;;;;;;5014154;28;45435;-68
2022/09/06 15:02:27;;;;;;;;;3.75;3.50;;;;;;;;5012718;28;45914;-68
2022/09/06 15:04:54;;;;;;;;;3.75;3.75;;;;;;;;5017626;28;45714;-68
2022/09/06 15:07:19;;;;;;;;;4.50;4.00;;;;;;;;5015750;28;45472;-68
2022/09/06 15:09:44;;;;;;;;;5.25;3.75;;;;;;;;5015371;28;45411;-68
2022/09/06 15:12:10;;;;;;;;;3.50;3.50;;;;;;;;5013740;28;45520;-68
2022/09/06 15:14:36;;;;;;;;;4.25;4.25;;;;;;;;5017500;28;45362;-68
2022/09/06 15:17:04;;;;;;;;;3.75;3.75;;;;;;;;5017292;28;45902;-68
2022/09/06 15:19:31;;;;;;;;;5.25;3.75;;;;;;;;5010419;28;45283;-69
2022/09/06 15:21:57;;;;;;;;;2.25;2.25;;;;;;;;5008787;28;45283;-68
2022/09/06 15:24:22;;;;;;;;;3.00;3.00;;;;;;;;5012257;28;45658;-69
2022/09/06 15:26:48;;;;;;;;;5.25;4.25;;;;;;;;5013395;28;45430;-68
2022/09/06 15:29:14;;;;;;;;;4.00;4.00;;;;;;;;5012053;28;45348;-68
2022/09/06 15:31:40;;;;;;;;;2.00;2.00;;;;;;;;5015462;28;46354;-68
2022/09/06 15:34:07;;;;;;;;;3.00;2.00;;;;;;;;5016069;28;45334;-68
2022/09/06 15:36:32;;;;;;;;;0.00;0.00;;;;;;;;5011989;28;45408;-68
2022/09/06 15:38:59;;;;;;;;;5.25;4.25;;;;;;;;5013694;28;46302;-68
2022/09/06 15:41:25;;;;;;;;;2.75;2.75;;;;;;;;5010810;28;46439;-68
2022/09/06 15:44:04;;;;;;;;;4.25;3.75;;;;;;;;5009019;28;45505;-67
2022/09/06 15:46:41;;;;;;;;;3.25;3.25;;;;;;;;5004534;28;45577;-65
2022/09/06 15:49:08;;;;;;;;;2.50;2.50;;;;;;;;5009115;28;45493;-66
2022/09/06 15:51:34;;;;;;;;;3.75;1.75;;;;;;;;5011707;28;46084;-67
2022/09/06 15:53:59;;;;;;;;;1.00;1.00;;;;;;;;5014574;28;45431;-67
2022/09/06 15:56:25;;;;;;;;;1.50;1.50;;;;;;;;5012014;28;46787;-67
2022/09/06 15:58:50;;;;;;;;;0.75;0.75;;;;;;;;5014937;28;45523;-68
2022/09/06 16:01:16;;;;;;;;;2.75;2.75;;;;;;;;5010569;28;45336;-65
2022/09/06 16:03:52;;;;;;;;;2.25;2.25;;;;;;;;5015354;28;45391;-66
2022/09/06 16:06:24;;;;;;;;;1.75;1.75;;;;;;;;5012972;28;45577;-64
2022/09/06 16:08:50;;;;;;;;;2.25;1.75;;;;;;;;5015879;28;45649;-67
2022/09/06 16:11:16;;;;;;;;;0.50;0.50;;;;;;;;5006945;28;46803;-68
2022/09/06 16:13:42;;;;;;;;;1.25;1.25;;;;;;;;5012216;28;46173;-65
2022/09/06 16:16:08;;;;;;;;;4.25;2.50;;;;;;;;5007949;28;45410;-65
2022/09/06 16:18:34;;;;;;;;;2.75;1.75;;;;;;;;5014918;28;45601;-65
2022/09/06 16:21:10;;;;;;;;;1.50;1.50;;;;;;;;5006732;28;45376;-65
2022/09/06 16:23:36;;;;;;;;;3.00;2.00;;;;;;;;5012413;28;45634;-64
2022/09/06 16:26:05;;;;;;;;;2.00;1.50;;;;;;;;5016796;28;45703;-62
2022/09/06 16:28:31;;;;;;;;;2.25;1.00;;;;;;;;5017252;28;45427;-62
2022/09/06 16:31:01;;;;;;;;;4.00;2.50;;;;;;;;5014255;28;45975;-62
2022/09/06 16:33:26;;;;;;;;;8.00;8.00;;;;;;;;5017645;28;45287;-62
2022/09/06 16:35:51;;;;;;;;;5.75;2.50;;;;;;;;5021851;28;45458;-61
2022/09/06 16:38:17;;;;;;;;;2.00;2.00;;;;;;;;5014994;28;45531;-61
2022/09/06 16:40:45;;;;;;;;;3.75;3.75;;;;;;;;5012795;28;46012;-61
2022/09/06 16:43:11;;;;;;;;;3.00;3.00;;;;;;;;5002125;28;45272;-62
2022/09/06 16:45:36;;;;;;;;;0.50;0.50;;;;;;;;5016910;28;46034;-62
2022/09/06 16:48:02;;;;;;;;;2.25;1.00;;;;;;;;5016192;28;45415;-62
2022/09/06 16:50:27;;;;;;;;;4.00;2.75;;;;;;;;5011723;28;45368;-62
2022/09/06 16:52:53;;;;;;;;;3.00;3.00;;;;;;;;5015856;28;45292;-62
2022/09/06 16:55:18;;;;;;;;;3.75;2.75;;;;;;;;5017002;28;45523;-62
2022/09/06 16:57:43;;;;;;;;;2.00;2.00;;;;;;;;5013940;28;45439;-62
2022/09/06 17:00:10;;;;;;;;;2.00;2.00;;;;;;;;5007588;28;46356;-62
2022/09/06 17:02:35;;;;;;;;;2.00;2.00;;;;;;;;5015166;28;45225;-62
2022/09/06 17:05:00;;;;;;;;;3.00;2.75;;;;;;;;5016591;28;45445;-61
2022/09/06 17:07:25;;;;;;;;;5.25;3.00;;;;;;;;5010023;28;45703;-62
2022/09/06 17:09:50;;;;;;;;;3.75;3.25;;;;;;;;5010863;28;46184;-62
2022/09/06 17:12:16;;;;;;;;;4.00;2.75;;;;;;;;5011259;28;45260;-63
2022/09/06 17:14:41;;;;;;;;;3.25;3.25;;;;;;;;5010789;28;45594;-63
2022/09/06 17:17:08;;;;;;;;;3.25;3.25;;;;;;;;5011871;28;45350;-63
2022/09/06 17:19:40;;;;;;;;;3.25;2.25;;;;;;;;5015510;28;45517;-63
2022/09/06 17:22:05;;;;;;;;;2.50;2.00;;;;;;;;5007773;28;45397;-63
2022/09/06 17:24:31;;;;;;;;;4.75;4.75;;;;;;;;5018069;28;45218;-63
2022/09/06 17:26:56;;;;;;;;;4.00;3.00;;;;;;;;5030905;28;45544;-62
2022/09/06 17:29:24;;;;;;;;;4.00;3.00;;;;;;;;5008299;28;45506;-62
2022/09/06 17:31:49;;;;;;;;;4.00;3.50;;;;;;;;5019435;28;45636;-62
2022/09/06 17:34:15;;;;;;;;;9.00;8.67;;;;;;;;5014535;28;45342;-62
2022/09/06 17:36:40;;;;;;;;;4.50;4.50;;;;;;;;5011914;28;45706;-62
2022/09/06 17:39:07;;;;;;;;;7.00;7.00;;;;;;;;5011213;28;45533;-63
2022/09/06 17:41:37;;;;;;;;;3.75;3.75;;;;;;;;5018896;28;45318;-63
2022/09/06 17:44:04;;;;;;;;;3.00;3.00;;;;;;;;5014331;28;45473;-63
2022/09/06 17:46:29;;;;;;;;;4.25;2.50;;;;;;;;5010847;28;45545;-63
2022/09/06 17:48:54;;;;;;;;;2.00;2.00;;;;;;;;5014197;28;46118;-62
2022/09/06 17:51:20;;;;;;;;;2.75;2.75;;;;;;;;5012907;28;48250;-62
2022/09/06 17:53:45;;;;;;;;;2.00;2.00;;;;;;;;5025027;28;45496;-61
2022/09/06 17:56:12;;;;;;;;;2.50;2.50;;;;;;;;5008565;28;45738;-62
2022/09/06 17:58:38;;;;;;;;;2.50;2.50;;;;;;;;5026610;28;45396;-61
2022/09/06 18:01:04;;;;;;;;;3.00;3.00;;;;;;;;5022978;28;45441;-62
2022/09/06 18:03:30;;;;;;;;;5.00;4.25;;;;;;;;5022530;28;45507;-62
2022/09/06 18:06:01;;;;;;;;;4.00;4.00;;;;;;;;5015528;28;45344;-62
2022/09/06 18:08:26;;;;;;;;;3.25;3.25;;;;;;;;5032465;28;47404;-62
2022/09/06 18:10:51;;;;;;;;;2.25;2.25;;;;;;;;5034699;28;45272;-62
2022/09/06 18:13:16;;;;;;;;;3.25;3.25;;;;;;;;5029603;28;45354;-62
2022/09/06 18:15:41;;;;;;;;;3.00;3.00;;;;;;;;5027815;28;45366;-63
2022/09/06 18:18:07;;;;;;;;;3.00;3.00;;;;;;;;5011709;28;45483;-62
2022/09/06 18:20:32;;;;;;;;;5.00;4.00;;;;;;;;5012692;28;45440;-62
2022/09/06 18:22:58;;;;;;;;;4.50;3.75;;;;;;;;5006876;28;45177;-62
2022/09/06 18:25:23;;;;;;;;;4.00;4.00;;;;;;;;5015860;28;45369;-62
2022/09/06 18:27:48;;;;;;;;;3.00;3.00;;;;;;;;5010513;28;45547;-62
2022/09/06 18:30:14;;;;;;;;;3.50;3.50;;;;;;;;5016960;28;46741;-62
2022/09/06 18:32:39;;;;;;;;;2.67;2.67;;;;;;;;5004814;28;45371;-62
2022/09/06 18:35:05;;;;;;;;;4.00;4.00;;;;;;;;5017068;28;45328;-63
2022/09/06 18:37:32;;;;;;;;;4.75;3.25;;;;;;;;5024333;28;45620;-62
2022/09/06 18:39:57;;;;;;;;;6.00;6.00;;;;;;;;5020599;28;45512;-62
2022/09/06 18:42:22;;;;;;;;;5.00;5.00;;;;;;;;5010938;28;45471;-62
2022/09/06 18:44:48;;;;;;;;;4.00;4.00;;;;;;;;5017129;28;45627;-62
2022/09/06 18:47:14;;;;;;;;;5.00;4.00;;;;;;;;5017496;28;45423;-63
2022/09/06 18:49:39;;;;;;;;;4.67;4.67;;;;;;;;5013799;28;45437;-62
2022/09/06 18:52:04;;;;;;;;;3.00;3.00;;;;;;;;5021829;28;45711;-62
2022/09/06 18:54:30;;;;;;;;;7.33;4.67;;;;;;;;5008969;28;45439;-62
2022/09/06 18:56:55;;;;;;;;;4.33;4.00;;;;;;;;5000448;28;46069;-64
2022/09/06 18:59:21;;;;;;;;;3.33;3.33;;;;;;;;5001408;28;45407;-64
2022/09/06 19:01:46;;;;;;;;;3.33;3.33;;;;;;;;5008169;28;45519;-64
2022/09/06 19:04:11;;;;;;;;;2.50;2.50;;;;;;;;5004285;28;45684;-61
2022/09/06 19:06:38;;;;;;;;;1.25;1.25;;;;;;;;5010032;28;46308;-61
2022/09/06 19:09:05;;;;;;;;;2.00;2.00;;;;;;;;5009648;28;45537;-62
2022/09/06 19:11:31;;;;;;;;;2.00;2.00;;;;;;;;5009925;28;45305;-62
2022/09/06 19:13:56;;;;;;;;;2.00;2.00;;;;;;;;5007830;28;45578;-62
2022/09/06 19:16:22;;;;;;;;;4.00;3.75;;;;;;;;5011715;28;47117;-62